Time;durP1;ratioP1;P1;durP2;ratioP2;P2;SDS_P1;SDS_P2;PMS_P1;PMS_P2;Temp;Humidity;BMP_temperature;BMP_pressure;BME280_temperature;BME280_humidity;BME280_pressure;Samples;Min_cycle;Max_cycle;Signal;HPM_P1;HPM_P2
2021/05/28 00:01:00;;;;;;;6.72;3.85;;;;;;;11.61;73.90;96708.34;5033853;28;20058;-66
2021/05/28 00:03:27;;;;;;;4.15;3.17;;;;;;;11.65;73.86;96703.84;5033397;28;20042;-66
2021/05/28 00:05:53;;;;;;;4.38;3.50;;;;;;;11.66;73.95;96705.47;5033607;28;20042;-66
2021/05/28 00:08:19;;;;;;;5.90;3.53;;;;;;;11.68;73.52;96703.22;5033148;28;20050;-68
2021/05/28 00:10:45;;;;;;;5.95;3.90;;;;;;;11.69;73.60;96704.00;5033639;28;20046;-65
2021/05/28 00:13:11;;;;;;;5.43;3.47;;;;;;;11.71;73.55;96697.13;5033087;28;20057;-67
2021/05/28 00:15:37;;;;;;;4.38;3.53;;;;;;;11.74;73.53;96701.97;5033549;28;20042;-67
2021/05/28 00:18:03;;;;;;;7.55;4.38;;;;;;;11.72;73.53;96698.72;5033096;28;20041;-68
2021/05/28 00:20:30;;;;;;;7.40;3.47;;;;;;;11.71;73.37;96708.03;5033571;28;20100;-67
2021/05/28 00:22:56;;;;;;;5.68;3.70;;;;;;;11.74;73.50;96696.50;5033494;28;20038;-67
2021/05/28 00:25:22;;;;;;;7.18;4.03;;;;;;;11.76;73.55;96697.00;5032818;28;20115;-68
2021/05/28 00:27:48;;;;;;;6.40;3.83;;;;;;;11.76;73.55;96704.38;5033122;28;20049;-67
2021/05/28 00:30:14;;;;;;;7.88;3.70;;;;;;;11.75;73.16;96698.13;5033434;28;20053;-68
2021/05/28 00:32:40;;;;;;;5.18;3.47;;;;;;;11.74;73.54;96701.97;5032740;28;20068;-67
2021/05/28 00:35:08;;;;;;;5.95;3.95;;;;;;;11.75;73.23;96698.13;5032812;28;20492;-68
2021/05/28 00:37:34;;;;;;;4.72;3.65;;;;;;;11.72;73.08;96693.28;5033160;28;20045;-67
2021/05/28 00:40:00;;;;;;;8.88;3.78;;;;;;;11.70;73.09;96695.53;5033082;28;20056;-68
2021/05/28 00:42:26;;;;;;;6.93;4.25;;;;;;;11.64;73.63;96702.25;5032364;28;20045;-65
2021/05/28 00:44:52;;;;;;;7.25;4.13;;;;;;;11.67;73.93;96696.16;5032943;28;20583;-67
2021/05/28 00:47:18;;;;;;;4.68;4.03;;;;;;;11.63;73.88;96692.44;5032484;28;20041;-67
2021/05/28 00:49:44;;;;;;;5.50;4.25;;;;;;;11.67;73.95;96695.34;5032682;28;20424;-68
2021/05/28 00:52:13;;;;;;;6.03;3.75;;;;;;;11.65;73.81;96692.16;5032445;28;20463;-68
2021/05/28 00:54:40;;;;;;;11.15;4.40;;;;;;;11.63;73.90;96687.00;5032712;28;20050;-67
2021/05/28 00:57:07;;;;;;;6.22;4.15;;;;;;;11.63;74.21;96689.72;5032404;28;20045;-68
2021/05/28 00:59:33;;;;;;;5.82;4.13;;;;;;;11.66;73.99;96689.09;5033512;28;20048;-67
2021/05/28 01:01:59;;;;;;;5.68;4.13;;;;;;;11.71;74.20;96691.69;5032635;28;20045;-68
2021/05/28 01:04:25;;;;;;;6.32;3.83;;;;;;;11.69;74.04;96698.56;5032181;28;20049;-68
2021/05/28 01:06:51;;;;;;;5.40;4.00;;;;;;;11.69;73.90;96693.94;5032622;28;20508;-67
2021/05/28 01:09:16;;;;;;;5.47;3.90;;;;;;;11.69;74.03;96704.00;5032060;28;20132;-67
2021/05/28 01:11:43;;;;;;;4.80;4.05;;;;;;;11.68;74.32;96703.22;5032434;28;20114;-67
2021/05/28 01:14:09;;;;;;;5.53;4.38;;;;;;;11.70;74.12;96706.44;5031921;28;20436;-68
2021/05/28 01:16:35;;;;;;;5.50;4.07;;;;;;;11.70;74.39;96706.44;5032492;28;20077;-67
2021/05/28 01:19:01;;;;;;;5.78;4.13;;;;;;;11.69;74.51;96701.28;5032403;28;20065;-68
2021/05/28 01:21:28;;;;;;;5.65;4.28;;;;;;;11.69;75.00;96704.84;5032062;28;20440;-68
2021/05/28 01:23:55;;;;;;;6.70;4.45;;;;;;;11.68;75.06;96695.03;5032260;28;20049;-68
2021/05/28 01:26:21;;;;;;;7.50;4.55;;;;;;;11.66;74.98;96705.47;5031668;28;20102;-67
2021/05/28 01:28:47;;;;;;;7.00;4.15;;;;;;;11.68;74.71;96703.22;5032816;28;20048;-67
2021/05/28 01:31:13;;;;;;;5.72;4.38;;;;;;;11.66;74.79;96699.22;5031644;28;20053;-67
2021/05/28 01:33:41;;;;;;;6.93;4.80;;;;;;;11.68;75.17;96703.22;5032088;28;20037;-68
2021/05/28 01:36:08;;;;;;;7.00;4.50;;;;;;;11.67;74.95;96701.59;5031526;28;20048;-68
2021/05/28 01:38:34;;;;;;;6.07;4.57;;;;;;;11.70;75.17;96701.00;5031758;28;20048;-67
2021/05/28 01:41:01;;;;;;;11.35;4.75;;;;;;;11.69;75.07;96699.38;5031743;28;20077;-66
2021/05/28 01:43:28;;;;;;;8.63;4.80;;;;;;;11.70;75.06;96703.72;5030874;28;20037;-67
2021/05/28 01:45:54;;;;;;;6.07;4.80;;;;;;;11.70;75.37;96689.28;5031794;28;20072;-68
2021/05/28 01:48:20;;;;;;;7.97;5.28;;;;;;;11.67;75.05;96696.16;5031128;28;20049;-67
2021/05/28 01:50:47;;;;;;;5.45;4.35;;;;;;;11.67;75.09;96695.34;5031497;28;20428;-67
2021/05/28 01:53:14;;;;;;;6.65;4.55;;;;;;;11.62;75.15;96698.22;5031141;28;20041;-68
2021/05/28 01:55:40;;;;;;;9.25;5.35;;;;;;;11.59;75.54;96694.22;5031761;28;20041;-68
2021/05/28 01:58:09;;;;;;;8.02;4.95;;;;;;;11.58;75.70;96692.59;5032199;28;20048;-68
2021/05/28 02:00:35;;;;;;;5.95;4.50;;;;;;;11.57;75.77;96690.97;5031385;28;20037;-68
2021/05/28 02:03:01;;;;;;;7.57;5.35;;;;;;;11.53;76.01;96689.19;5031634;28;20053;-65
2021/05/28 02:05:27;;;;;;;7.60;4.90;;;;;;;11.48;75.89;96692.88;5031433;28;20420;-65
2021/05/28 02:07:53;;;;;;;7.68;5.18;;;;;;;11.40;76.41;96696.38;5031602;28;20120;-67
2021/05/28 02:10:19;;;;;;;6.78;4.90;;;;;;;11.32;76.83;96692.47;5030974;28;20045;-67
2021/05/28 02:12:44;;;;;;;6.68;5.13;;;;;;;11.27;77.15;96697.28;5031305;28;20496;-68
2021/05/28 02:15:13;;;;;;;6.95;5.13;;;;;;;11.24;77.27;96694.06;5030852;28;20071;-68
2021/05/28 02:17:39;;;;;;;7.10;5.28;;;;;;;11.20;76.83;96695.81;5031187;28;20049;-68
2021/05/28 02:20:06;;;;;;;7.43;5.55;;;;;;;11.17;76.93;96704.63;5030844;28;20103;-68
2021/05/28 02:22:32;;;;;;;8.65;5.85;;;;;;;11.13;77.21;96709.09;5031327;28;20045;-67
2021/05/28 02:24:58;;;;;;;7.90;5.95;;;;;;;11.13;77.16;96720.00;5031075;28;20488;-68
2021/05/28 02:27:24;;;;;;;10.02;5.90;;;;;;;11.08;77.04;96711.94;5027666;28;20346;-67
2021/05/28 02:29:50;;;;;;;7.13;5.97;;;;;;;11.06;77.26;96703.25;5028983;28;20138;-67
2021/05/28 02:32:16;;;;;;;11.68;5.97;;;;;;;11.01;77.44;96706.13;5029942;28;20083;-67
2021/05/28 02:34:42;;;;;;;9.32;6.13;;;;;;;11.03;77.70;96714.00;5031285;28;20045;-68
2021/05/28 02:37:08;;;;;;;8.05;5.45;;;;;;;11.02;77.28;96702.31;5030082;28;20080;-68
2021/05/28 02:39:34;;;;;;;9.50;6.30;;;;;;;11.01;77.22;96699.88;5031090;28;20055;-67
2021/05/28 02:42:00;;;;;;;8.60;6.53;;;;;;;10.95;77.08;96708.16;5030924;28;20646;-67
2021/05/28 02:44:26;;;;;;;8.98;5.97;;;;;;;10.93;77.41;96709.63;5029928;28;20045;-67
2021/05/28 02:46:52;;;;;;;7.35;5.97;;;;;;;10.91;77.16;96700.94;5030405;28;20049;-67
2021/05/28 02:49:19;;;;;;;11.30;5.80;;;;;;;10.85;77.58;96710.34;5030590;28;20076;-67
2021/05/28 02:51:45;;;;;;;7.55;5.88;;;;;;;10.80;77.88;96705.03;5030578;28;20511;-68
2021/05/28 02:54:11;;;;;;;7.43;5.70;;;;;;;10.75;78.18;96710.59;5031930;28;20045;-67
2021/05/28 02:56:37;;;;;;;9.25;6.20;;;;;;;10.70;78.42;96708.81;5037272;28;20041;-67
2021/05/28 02:59:03;;;;;;;7.50;6.00;;;;;;;10.66;78.50;96705.91;5040164;28;20045;-68
2021/05/28 03:01:29;;;;;;;7.90;6.22;;;;;;;10.67;78.29;96712.97;5037402;28;20057;-67
2021/05/28 03:03:55;;;;;;;8.35;5.88;;;;;;;10.63;78.33;96716.63;5037270;28;20045;-67
2021/05/28 03:06:22;;;;;;;8.93;6.20;;;;;;;10.58;78.62;96708.56;5036993;28;20520;-67
2021/05/28 03:08:48;;;;;;;8.20;6.30;;;;;;;10.56;78.98;96700.72;5037424;28;20045;-67
2021/05/28 03:11:14;;;;;;;9.88;7.35;;;;;;;10.52;78.88;96704.34;5036714;28;20060;-67
2021/05/28 03:13:40;;;;;;;9.15;6.70;;;;;;;10.50;79.10;96709.31;5037303;28;20073;-67
2021/05/28 03:16:06;;;;;;;10.43;7.05;;;;;;;10.49;78.99;96705.75;5036755;28;20045;-68
2021/05/28 03:18:44;;;;;;;9.38;6.90;;;;;;;10.49;79.01;96705.75;5037139;28;20057;-67
2021/05/28 03:21:20;;;;;;;13.45;7.30;;;;;;;10.50;78.92;96707.41;5036602;28;20064;-67
2021/05/28 03:23:47;;;;;;;9.25;6.82;;;;;;;10.48;78.90;96706.88;5037060;28;20055;-67
2021/05/28 03:26:13;;;;;;;11.60;7.68;;;;;;;10.46;78.69;96703.69;5036615;28;20072;-67
2021/05/28 03:28:39;;;;;;;11.82;6.95;;;;;;;10.48;78.66;96701.44;5040468;28;20617;-68
2021/05/28 03:31:06;;;;;;;10.65;6.90;;;;;;;10.48;78.50;96698.72;5036835;28;20067;-68
2021/05/28 03:33:32;;;;;;;9.18;6.97;;;;;;;10.47;78.36;96702.56;5036942;28;20677;-67
2021/05/28 03:35:58;;;;;;;9.45;7.28;;;;;;;10.48;78.34;96706.88;5037097;28;20092;-67
2021/05/28 03:38:24;;;;;;;14.00;7.25;;;;;;;10.51;78.48;96709.00;5036522;28;20045;-65
2021/05/28 03:40:51;;;;;;;8.20;6.45;;;;;;;10.55;78.46;96709.19;5037036;28;20041;-65
2021/05/28 03:43:17;;;;;;;10.15;7.00;;;;;;;10.56;78.48;96700.72;5036651;28;20500;-65
2021/05/28 03:45:43;;;;;;;11.70;7.53;;;;;;;10.56;78.72;96706.16;5034106;28;20038;-66
2021/05/28 03:48:09;;;;;;;13.93;7.43;;;;;;;10.59;78.75;96708.25;5036366;28;20128;-66
2021/05/28 03:50:35;;;;;;;9.73;7.00;;;;;;;10.63;78.01;96717.41;5036688;28;20053;-66
2021/05/28 03:53:01;;;;;;;8.55;6.15;;;;;;;10.60;77.66;96715.31;5036516;28;20057;-67
2021/05/28 03:55:27;;;;;;;9.38;6.05;;;;;;;10.52;77.75;96716.06;5037037;28;20045;-66
2021/05/28 03:57:54;;;;;;;10.60;7.13;;;;;;;10.46;77.85;96720.00;5040292;28;20053;-66
2021/05/28 04:00:20;;;;;;;10.43;6.68;;;;;;;10.45;78.02;96721.94;5036081;28;20115;-65
2021/05/28 04:02:46;;;;;;;9.73;6.13;;;;;;;10.43;78.42;96718.69;5036758;28;20048;-66
2021/05/28 04:05:14;;;;;;;8.98;6.60;;;;;;;10.43;78.39;96728.78;5036234;28;20124;-66
2021/05/28 04:07:40;;;;;;;10.98;6.38;;;;;;;10.37;78.64;96719.94;5033079;28;20124;-66
2021/05/28 04:10:07;;;;;;;10.77;6.72;;;;;;;10.32;78.81;96721.97;5033197;28;20080;-66
2021/05/28 04:12:34;;;;;;;10.00;6.55;;;;;;;10.32;78.96;96716.53;5033513;28;20049;-66
2021/05/28 04:15:00;;;;;;;11.02;6.78;;;;;;;10.38;79.64;96724.25;5033603;28;20041;-66
2021/05/28 04:17:26;;;;;;;10.20;6.95;;;;;;;10.46;79.52;96717.28;5033428;28;20408;-66
2021/05/28 04:19:52;;;;;;;9.65;7.07;;;;;;;10.53;79.39;96717.66;5033604;28;20052;-66
2021/05/28 04:22:18;;;;;;;8.43;6.13;;;;;;;10.59;78.45;96727.31;5032882;28;20492;-66
2021/05/28 04:24:45;;;;;;;8.95;5.90;;;;;;;10.59;77.95;96730.03;5033474;28;20514;-66
2021/05/28 04:27:11;;;;;;;12.95;6.30;;;;;;;10.64;78.31;96729.09;5033076;28;20447;-67
2021/05/28 04:29:37;;;;;;;9.73;6.88;;;;;;;10.65;77.98;96734.28;5036310;28;20049;-67
2021/05/28 04:32:05;;;;;;;8.88;5.80;;;;;;;10.64;77.57;96729.91;5032966;28;20049;-67
2021/05/28 04:34:33;;;;;;;7.90;6.30;;;;;;;10.60;78.04;96728.94;5033286;28;20041;-66
2021/05/28 04:36:59;;;;;;;7.90;5.57;;;;;;;10.65;78.34;96734.28;5032783;28;20064;-66
2021/05/28 04:39:26;;;;;;;9.38;6.13;;;;;;;10.66;78.01;96733.16;5032628;28;20485;-66
2021/05/28 04:41:52;;;;;;;8.32;5.93;;;;;;;10.66;78.11;96733.16;5033210;28;20046;-66
2021/05/28 04:44:18;;;;;;;8.50;5.97;;;;;;;10.74;78.13;96736.22;5032534;28;20519;-66
2021/05/28 04:46:44;;;;;;;8.65;5.97;;;;;;;10.80;78.55;96738.53;5032940;28;20519;-66
2021/05/28 04:49:10;;;;;;;8.25;6.20;;;;;;;10.86;78.55;96734.59;5032403;28;20045;-66
2021/05/28 04:51:36;;;;;;;8.60;5.90;;;;;;;10.94;77.22;96738.47;5032763;28;20041;-66
2021/05/28 04:54:03;;;;;;;7.22;5.75;;;;;;;10.97;76.49;96740.56;5032463;28;20049;-67
2021/05/28 04:56:29;;;;;;;8.88;5.43;;;;;;;10.97;76.07;96738.66;5032942;28;20060;-66
2021/05/28 04:58:55;;;;;;;12.68;6.10;;;;;;;11.01;76.63;96732.56;5035790;28;20088;-66
2021/05/28 05:01:21;;;;;;;8.38;5.18;;;;;;;11.04;76.75;96737.41;5032155;28;20056;-66
2021/05/28 05:03:47;;;;;;;8.70;5.05;;;;;;;11.08;75.58;96741.94;5032941;28;20045;-66
2021/05/28 05:06:14;;;;;;;9.52;5.10;;;;;;;11.01;75.49;96738.81;5032257;28;20045;-66
2021/05/28 05:08:40;;;;;;;7.05;5.35;;;;;;;11.00;75.64;96742.66;5032571;28;20053;-66
2021/05/28 05:11:06;;;;;;;7.88;5.63;;;;;;;10.95;75.68;96742.78;5031940;28;20111;-67
2021/05/28 05:13:32;;;;;;;9.45;4.80;;;;;;;10.94;76.17;96747.44;5032570;28;20064;-66
2021/05/28 05:15:58;;;;;;;8.18;5.10;;;;;;;10.90;76.62;96753.81;5032434;28;20057;-66
2021/05/28 05:18:24;;;;;;;8.50;5.22;;;;;;;10.99;77.50;96751.97;5030688;28;20041;-66
2021/05/28 05:20:50;;;;;;;7.07;4.82;;;;;;;11.00;76.01;96756.28;5032489;28;20128;-66
2021/05/28 05:23:18;;;;;;;8.88;4.97;;;;;;;10.95;76.55;96746.31;5031591;28;20397;-66
2021/05/28 05:25:44;;;;;;;6.50;4.40;;;;;;;10.94;77.01;96754.81;5032312;28;20153;-66
2021/05/28 05:28:10;;;;;;;8.73;5.18;;;;;;;11.03;76.52;96758.41;5034919;28;20045;-66
2021/05/28 05:30:36;;;;;;;5.68;4.65;;;;;;;11.05;76.82;96750.72;5032001;28;20100;-66
2021/05/28 05:33:03;;;;;;;11.15;5.60;;;;;;;11.12;76.92;96756.53;5031892;28;20073;-69
2021/05/28 05:35:29;;;;;;;7.40;4.90;;;;;;;11.18;75.42;96755.28;5031114;28;20068;-70
2021/05/28 05:37:55;;;;;;;9.25;5.30;;;;;;;11.18;74.99;96759.94;5032149;28;20049;-69
2021/05/28 05:40:21;;;;;;;6.97;5.07;;;;;;;11.21;74.65;96760.09;5031689;28;20111;-69
2021/05/28 05:42:48;;;;;;;7.20;4.88;;;;;;;11.22;74.84;96760.91;5032130;28;20088;-70
2021/05/28 05:45:16;;;;;;;8.25;5.38;;;;;;;11.28;74.25;96765.13;5031801;28;20045;-69
2021/05/28 05:47:43;;;;;;;7.68;4.63;;;;;;;11.27;74.40;96757.25;5031854;28;20053;-69
2021/05/28 05:50:10;;;;;;;7.28;5.15;;;;;;;11.16;73.56;96757.50;5028760;28;20053;-69
2021/05/28 05:52:36;;;;;;;7.35;5.55;;;;;;;11.18;73.89;96755.28;5032031;28;20128;-70
2021/05/28 05:55:03;;;;;;;7.35;5.63;;;;;;;11.28;74.64;96758.88;5031720;28;20097;-70
2021/05/28 05:57:30;;;;;;;6.35;4.75;;;;;;;11.38;74.31;96753.97;5034191;28;20049;-70
2021/05/28 05:59:56;;;;;;;7.05;5.30;;;;;;;11.38;73.38;96753.97;5034655;28;20042;-70
2021/05/28 06:02:22;;;;;;;7.43;5.05;;;;;;;11.39;73.39;96761.03;5030961;28;20042;-71
2021/05/28 06:04:48;;;;;;;7.28;4.93;;;;;;;11.54;74.21;96759.81;5031612;28;20048;-70
2021/05/28 06:07:14;;;;;;;8.77;5.50;;;;;;;11.62;73.88;96753.56;5031296;28;20069;-71
2021/05/28 06:09:40;;;;;;;6.05;4.93;;;;;;;11.67;72.47;96749.91;5031529;28;20046;-70
2021/05/28 06:12:08;;;;;;;6.05;4.65;;;;;;;11.70;72.91;96744.63;5030857;28;20052;-71
2021/05/28 06:14:35;;;;;;;9.25;4.80;;;;;;;11.82;72.55;96745.97;5031612;28;20484;-70
2021/05/28 06:17:01;;;;;;;6.60;5.05;;;;;;;11.85;72.43;96745.34;5029788;28;20054;-70
2021/05/28 06:19:26;;;;;;;8.20;5.00;;;;;;;11.90;72.89;96754.22;5031367;28;20077;-70
2021/05/28 06:21:53;;;;;;;6.95;4.93;;;;;;;11.99;73.10;96756.94;5030329;28;20052;-70
2021/05/28 06:24:19;;;;;;;8.27;5.50;;;;;;;12.12;72.19;96756.03;5030093;28;20042;-71
2021/05/28 06:26:45;;;;;;;8.80;5.30;;;;;;;12.20;72.43;96752.50;5030441;28;20037;-70
2021/05/28 06:29:11;;;;;;;7.60;5.38;;;;;;;12.33;72.51;96755.44;5033470;28;20452;-71
2021/05/28 06:31:38;;;;;;;12.00;5.65;;;;;;;12.48;71.91;96763.16;5030530;28;20052;-71
2021/05/28 06:34:04;;;;;;;7.30;4.90;;;;;;;12.56;68.54;96759.59;5029715;28;20045;-71
2021/05/28 06:36:31;;;;;;;7.63;5.10;;;;;;;12.60;68.44;96757.84;5030561;28;20046;-70
2021/05/28 06:38:57;;;;;;;8.63;5.57;;;;;;;12.62;70.33;96762.97;5030142;28;20511;-70
2021/05/28 06:41:23;;;;;;;6.32;5.20;;;;;;;12.66;68.65;96762.03;5030597;28;20077;-70
2021/05/28 06:43:49;;;;;;;8.13;5.47;;;;;;;12.63;69.92;96762.66;5030060;28;20103;-70
2021/05/28 06:46:16;;;;;;;8.93;6.38;;;;;;;12.70;70.49;96771.19;5030716;28;20137;-70
2021/05/28 06:48:43;;;;;;;8.82;5.43;;;;;;;12.77;69.75;96770.69;5030064;28;20042;-70
2021/05/28 06:51:10;;;;;;;8.10;5.88;;;;;;;12.83;68.09;96774.06;5030393;28;20053;-70
2021/05/28 06:53:36;;;;;;;7.85;5.90;;;;;;;12.87;67.90;96772.31;5029911;28;20041;-71
2021/05/28 06:56:02;;;;;;;7.10;5.35;;;;;;;12.92;68.02;96772.16;5030600;28;20112;-70
2021/05/28 06:58:29;;;;;;;10.45;5.40;;;;;;;13.00;67.98;96774.09;5033330;28;20554;-70
2021/05/28 07:00:55;;;;;;;7.72;5.53;;;;;;;13.06;65.86;96778.25;5030308;28;20083;-70
2021/05/28 07:03:21;;;;;;;7.95;4.90;;;;;;;13.13;66.01;96785.97;5030311;28;20053;-70
2021/05/28 07:05:48;;;;;;;7.60;5.70;;;;;;;13.14;66.53;96784.81;5030126;28;20041;-70
2021/05/28 07:08:14;;;;;;;7.72;5.53;;;;;;;13.13;67.33;96784.03;5030459;28;20404;-71
2021/05/28 07:10:40;;;;;;;7.78;6.10;;;;;;;13.16;67.68;96788.88;5029938;28;20046;-70
2021/05/28 07:13:06;;;;;;;8.73;5.97;;;;;;;13.26;67.41;96783.09;5030385;28;20412;-71
2021/05/28 07:15:32;;;;;;;8.48;5.95;;;;;;;13.37;65.90;96777.28;5030333;28;20114;-71
2021/05/28 07:17:58;;;;;;;7.75;5.72;;;;;;;13.47;65.52;96787.88;5031063;28;20128;-71
2021/05/28 07:20:24;;;;;;;7.75;5.82;;;;;;;13.49;64.35;96785.59;5029391;28;20095;-70
2021/05/28 07:22:51;;;;;;;9.43;5.40;;;;;;;13.43;64.24;96792.38;5030505;28;20041;-70
2021/05/28 07:25:17;;;;;;;9.80;5.80;;;;;;;13.43;64.87;96781.44;5029595;28;20080;-70
2021/05/28 07:27:43;;;;;;;10.90;6.25;;;;;;;13.49;65.97;96785.59;5033870;28;20160;-71
2021/05/28 07:30:11;;;;;;;8.52;6.45;;;;;;;13.50;66.41;96789.94;5029464;28;20115;-71
2021/05/28 07:32:38;;;;;;;10.35;6.63;;;;;;;13.51;66.95;96788.81;5030026;28;20516;-71
2021/05/28 07:35:05;;;;;;;9.52;6.32;;;;;;;13.57;67.22;96792.97;5030117;28;20048;-71
2021/05/28 07:37:31;;;;;;;9.30;6.38;;;;;;;13.65;66.71;96783.94;5029534;28;20041;-71
2021/05/28 07:39:58;;;;;;;6.68;5.60;;;;;;;13.72;66.36;96789.69;5031049;28;20045;-71
2021/05/28 07:42:24;;;;;;;10.13;6.60;;;;;;;13.82;65.62;96783.88;5032005;28;20096;-70
2021/05/28 07:44:51;;;;;;;11.82;6.43;;;;;;;13.95;66.79;96781.25;5034499;28;20041;-69
2021/05/28 07:47:17;;;;;;;10.48;5.78;;;;;;;13.98;67.10;96780.59;5032979;28;20048;-69
2021/05/28 07:49:43;;;;;;;9.50;6.45;;;;;;;14.03;66.08;96788.63;5033713;28;20048;-70
2021/05/28 07:52:09;;;;;;;7.22;5.65;;;;;;;13.99;65.29;96784.91;5033014;28;20053;-71
2021/05/28 07:54:35;;;;;;;14.20;7.40;;;;;;;14.16;65.89;96781.31;5033697;28;20119;-69
2021/05/28 07:57:03;;;;;;;12.35;6.85;;;;;;;14.21;64.77;96787.41;5033490;28;20050;-71
2021/05/28 07:59:29;;;;;;;6.53;5.47;;;;;;;14.43;64.95;96780.81;5036574;28;20050;-71
2021/05/28 08:01:55;;;;;;;10.07;7.30;;;;;;;14.67;65.03;96791.19;5033792;28;20085;-70
2021/05/28 08:04:21;;;;;;;11.60;6.40;;;;;;;14.88;66.25;96791.97;5032410;28;20768;-70
2021/05/28 08:06:47;;;;;;;10.75;6.15;;;;;;;14.96;62.66;96784.00;5033928;28;20048;-70
2021/05/28 08:09:14;;;;;;;8.18;6.55;;;;;;;15.13;62.62;96792.06;5032237;28;20104;-70
2021/05/28 08:11:40;;;;;;;10.15;5.93;;;;;;;15.31;60.08;96790.78;5034073;28;20148;-71
2021/05/28 08:14:07;;;;;;;8.68;5.32;;;;;;;15.27;58.97;96784.38;5032219;28;20132;-71
2021/05/28 08:16:33;;;;;;;6.95;5.65;;;;;;;15.13;58.20;96789.34;5033596;28;20463;-70
2021/05/28 08:18:59;;;;;;;8.40;6.57;;;;;;;14.99;61.16;96788.84;5033131;28;20504;-71
2021/05/28 08:21:25;;;;;;;8.55;6.32;;;;;;;15.77;63.46;96780.66;5032912;28;20046;-70
2021/05/28 08:23:51;;;;;;;7.78;5.90;;;;;;;16.45;57.62;96791.09;5033251;28;20412;-70
2021/05/28 08:26:17;;;;;;;9.25;5.78;;;;;;;16.65;60.12;96783.81;5032243;28;20042;-70
2021/05/28 08:28:43;;;;;;;6.40;4.85;;;;;;;17.67;55.90;96784.38;5038902;28;20566;-70
2021/05/28 08:31:11;;;;;;;8.18;4.97;;;;;;;18.17;50.71;96786.47;5032251;28;20061;-70
2021/05/28 08:33:37;;;;;;;7.35;5.35;;;;;;;17.70;51.28;96789.19;5033232;28;20049;-70
2021/05/28 08:36:05;;;;;;;8.32;5.68;;;;;;;17.39;53.49;96789.94;5031855;28;20052;-70
2021/05/28 08:38:31;;;;;;;8.60;5.38;;;;;;;17.08;54.55;96793.38;5032772;28;20041;-70
2021/05/28 08:40:57;;;;;;;7.28;5.47;;;;;;;17.94;52.83;96786.28;5032013;28;20045;-69
2021/05/28 08:43:23;;;;;;;8.60;4.93;;;;;;;18.99;50.73;96780.06;5032300;28;20041;-69
2021/05/28 08:45:49;;;;;;;6.10;4.72;;;;;;;20.08;47.85;96781.75;5032001;28;20061;-71
2021/05/28 08:48:18;;;;;;;5.30;4.30;;;;;;;20.92;50.39;96764.09;5042396;28;20045;-70
2021/05/28 08:50:46;;;;;;;9.63;4.30;;;;;;;21.35;45.82;96779.31;5028957;28;20053;-70
2021/05/28 08:53:13;;;;;;;8.88;4.60;;;;;;;21.36;44.28;96780.91;5028732;28;20060;-70
2021/05/28 08:55:41;;;;;;;8.15;4.57;;;;;;;21.47;41.33;96778.25;5029562;28;20057;-70
2021/05/28 08:58:09;;;;;;;6.25;4.80;;;;;;;22.01;44.56;96776.81;5031351;28;20061;-70
2021/05/28 09:00:35;;;;;;;4.78;3.80;;;;;;;22.83;45.12;96773.88;5029761;28;20049;-70
2021/05/28 09:03:23;;;;;;;8.73;4.65;;;;;;;22.81;43.39;96787.34;5028053;28;20093;-71
2021/05/28 09:05:50;;;;;;;8.93;4.65;;;;;;;22.18;43.48;96771.81;5029157;28;20088;-70
2021/05/28 09:08:24;;;;;;;7.70;5.30;;;;;;;21.35;44.92;96775.72;5028567;28;20436;-70
2021/05/28 09:10:51;;;;;;;6.47;4.97;;;;;;;20.33;45.87;96782.97;5028924;28;20133;-70
2021/05/28 09:13:19;;;;;;;7.13;5.20;;;;;;;19.52;48.37;96777.59;5028689;28;20053;-71
2021/05/28 09:15:47;;;;;;;8.95;5.80;;;;;;;18.75;49.43;96777.59;5029188;28;20041;-71
2021/05/28 09:18:14;;;;;;;7.88;5.93;;;;;;;18.13;51.87;96782.81;5029016;28;20412;-71
2021/05/28 09:20:47;;;;;;;9.15;5.90;;;;;;;17.69;53.14;96776.53;5028625;28;20491;-71
2021/05/28 09:23:16;;;;;;;7.25;5.60;;;;;;;17.54;54.85;96785.59;5029369;28;20049;-70
2021/05/28 09:25:57;;;;;;;8.52;6.03;;;;;;;17.62;56.74;96781.88;5028805;28;20053;-71
2021/05/28 09:28:24;;;;;;;7.38;5.70;;;;;;;17.62;54.30;96779.91;5032079;28;20393;-71
2021/05/28 09:30:58;;;;;;;8.27;5.80;;;;;;;17.50;54.13;96790.22;5028906;28;20045;-70
2021/05/28 09:33:25;;;;;;;6.22;4.70;;;;;;;17.24;52.86;96779.66;5028604;28;20053;-70
2021/05/28 09:35:53;;;;;;;9.43;5.72;;;;;;;17.11;55.59;96773.41;5029348;28;20045;-70
2021/05/28 09:38:23;;;;;;;7.40;5.65;;;;;;;17.07;56.62;96780.75;5027693;28;20045;-71
2021/05/28 09:40:50;;;;;;;6.72;5.32;;;;;;;17.07;55.76;96783.50;5029085;28;20487;-71
2021/05/28 09:43:22;;;;;;;9.82;5.38;;;;;;;17.06;54.90;96766.19;5027501;28;20050;-71
2021/05/28 09:45:49;;;;;;;9.55;4.88;;;;;;;17.04;52.61;96767.72;5029105;28;20107;-70
2021/05/28 09:48:25;;;;;;;8.85;5.93;;;;;;;17.08;56.45;96766.66;5027620;28;20571;-71
2021/05/28 09:50:53;;;;;;;6.57;5.22;;;;;;;17.10;55.71;96766.31;5028654;28;20045;-70
2021/05/28 09:53:28;;;;;;;7.45;4.82;;;;;;;16.89;53.94;96775.53;5027844;28;20173;-71
2021/05/28 09:55:54;;;;;;;8.75;5.13;;;;;;;16.65;56.33;96775.56;5028267;28;20046;-70
2021/05/28 09:58:21;;;;;;;7.22;5.13;;;;;;;16.51;56.73;96769.66;5031046;28;20041;-70
2021/05/28 10:00:48;;;;;;;7.47;5.55;;;;;;;16.34;57.93;96774.25;5028173;28;20128;-70
2021/05/28 10:03:16;;;;;;;7.25;5.57;;;;;;;16.16;57.10;96772.88;5028137;28;20049;-70
2021/05/28 10:05:45;;;;;;;7.88;5.30;;;;;;;15.99;57.08;96778.59;5027805;28;20049;-70
2021/05/28 10:08:13;;;;;;;11.50;5.30;;;;;;;15.90;58.10;96782.25;5027942;28;20060;-70
2021/05/28 10:10:41;;;;;;;7.40;5.03;;;;;;;15.82;58.39;96774.94;5027761;28;20041;-70
2021/05/28 10:13:11;;;;;;;6.63;4.70;;;;;;;15.81;58.16;96772.50;5027965;28;20046;-71
2021/05/28 10:15:39;;;;;;;6.10;4.75;;;;;;;15.73;58.14;96776.19;5027810;28;20566;-69
2021/05/28 10:18:05;;;;;;;5.80;4.45;;;;;;;15.66;58.75;96768.50;5027441;28;20603;-71
2021/05/28 10:20:31;;;;;;;8.23;4.60;;;;;;;15.62;59.06;96770.28;5028235;28;20527;-70
2021/05/28 10:22:58;;;;;;;6.18;4.30;;;;;;;15.55;57.84;96770.81;5027792;28;20045;-69
2021/05/28 10:25:25;;;;;;;6.50;4.80;;;;;;;15.48;58.15;96769.78;5028235;28;20049;-69
2021/05/28 10:27:55;;;;;;;9.30;5.25;;;;;;;15.34;58.21;96770.88;5030809;28;20127;-71
2021/05/28 10:30:25;;;;;;;7.32;4.68;;;;;;;15.26;59.76;96763.56;5010439;28;20060;-70
2021/05/28 10:33:13;;;;;;;6.70;4.70;;;;;;;15.23;60.52;96757.94;5028799;28;20049;-72
2021/05/28 10:35:44;;;;;;;8.10;4.93;;;;;;;15.21;60.54;96763.78;5028283;28;20041;-72
2021/05/28 10:38:38;;;;;;;7.05;4.80;;;;;;;15.16;59.43;96763.97;5028371;28;20137;-72
2021/05/28 10:41:21;;;;;;;;;;;;;;;15.14;59.86;96767.06;5028573;28;20080;-72
2021/05/28 10:44:01;;;;;;;5.38;4.65;;;;;;;15.12;60.96;96774.03;5027529;28;20395;-71
2021/05/28 10:46:27;;;;;;;6.57;5.30;;;;;;;15.08;59.78;96768.41;5028194;28;20045;-71
2021/05/28 10:49:12;;;;;;;9.18;5.68;;;;;;;15.10;61.43;96770.81;5028293;28;20528;-72
2021/05/28 10:52:01;;;;;;;7.13;5.18;;;;;;;15.08;59.48;96765.66;5027937;28;20049;-72
2021/05/28 10:54:29;;;;;;;7.05;4.72;;;;;;;15.08;59.41;96762.91;5028244;28;20060;-72
2021/05/28 10:56:55;;;;;;;5.97;4.50;;;;;;;15.11;60.55;96762.25;5028213;28;20056;-71
2021/05/28 10:59:23;;;;;;;7.85;5.07;;;;;;;15.15;59.41;96756.91;5030864;28;20115;-72
2021/05/28 11:01:52;;;;;;;7.05;4.65;;;;;;;15.18;58.57;96758.94;5028020;28;20080;-72
2021/05/28 11:04:22;;;;;;;9.35;4.88;;;;;;;15.27;59.00;96753.38;5027681;28;20045;-72
2021/05/28 11:07:14;;;;;;;9.30;5.15;;;;;;;15.40;58.67;96746.81;5028193;28;20050;-71
2021/05/28 11:09:42;;;;;;;9.13;4.93;;;;;;;15.46;60.34;96750.94;5028322;28;20045;-71
2021/05/28 11:12:09;;;;;;;8.35;5.20;;;;;;;15.60;59.74;96751.41;5027829;28;20050;-72
2021/05/28 11:14:39;;;;;;;8.70;5.50;;;;;;;15.69;58.90;96748.59;5028265;28;20571;-72
2021/05/28 11:17:17;;;;;;;9.05;5.75;;;;;;;15.73;56.50;96735.00;5031216;28;20696;-72
2021/05/28 11:19:56;;;;;;;8.25;6.05;;;;;;;15.69;58.16;96737.59;5032452;28;20046;-72
2021/05/28 11:22:38;;;;;;;6.07;4.90;;;;;;;15.65;57.46;96744.91;5031737;28;20065;-72
2021/05/28 11:25:07;;;;;;;6.15;5.20;;;;;;;15.59;57.26;96741.56;5031750;28;20049;-72
2021/05/28 11:27:55;;;;;;;9.02;5.15;;;;;;;15.57;58.48;96743.88;5035053;28;20049;-72
2021/05/28 11:30:44;;;;;;;5.63;4.38;;;;;;;15.53;57.65;96747.63;5030785;28;20050;-72
2021/05/28 11:33:51;;;;;;;6.60;4.45;;;;;;;15.48;57.78;96742.34;5031390;28;20389;-71